sensor_id;sensor_type;location;lat;lon;timestamp;P1;durP1;ratioP1;P2;durP2;ratioP2
3217;SDS011;1621;49.702;8.618;2022-09-28T00:01:56;3.90;;;1.80;;
3217;SDS011;1621;49.702;8.618;2022-09-28T00:04:24;6.23;;;2.90;;
3217;SDS011;1621;49.702;8.618;2022-09-28T00:06:50;5.80;;;2.00;;
3217;SDS011;1621;49.702;8.618;2022-09-28T00:09:16;5.23;;;2.13;;
3217;SDS011;1621;49.702;8.618;2022-09-28T00:11:43;4.50;;;2.33;;
3217;SDS011;1621;49.702;8.618;2022-09-28T00:14:10;4.73;;;2.17;;
3217;SDS011;1621;49.702;8.618;2022-09-28T00:16:37;3.90;;;2.00;;
3217;SDS011;1621;49.702;8.618;2022-09-28T00:19:04;5.80;;;2.37;;
3217;SDS011;1621;49.702;8.618;2022-09-28T00:21:34;3.47;;;2.03;;
3217;SDS011;1621;49.702;8.618;2022-09-28T00:24:01;3.93;;;1.90;;
3217;SDS011;1621;49.702;8.618;2022-09-28T00:26:44;7.93;;;1.97;;
3217;SDS011;1621;49.702;8.618;2022-09-28T00:29:16;5.40;;;2.50;;
3217;SDS011;1621;49.702;8.618;2022-09-28T00:31:43;5.00;;;2.57;;
3217;SDS011;1621;49.702;8.618;2022-09-28T00:34:10;6.37;;;2.60;;
3217;SDS011;1621;49.702;8.618;2022-09-28T00:36:38;3.20;;;1.93;;
3217;SDS011;1621;49.702;8.618;2022-09-28T00:39:05;3.70;;;2.10;;
3217;SDS011;1621;49.702;8.618;2022-09-28T00:41:32;4.07;;;2.10;;
3217;SDS011;1621;49.702;8.618;2022-09-28T00:46:43;5.20;;;2.57;;
3217;SDS011;1621;49.702;8.618;2022-09-28T00:49:10;3.97;;;2.33;;
3217;SDS011;1621;49.702;8.618;2022-09-28T00:51:39;4.83;;;2.60;;
3217;SDS011;1621;49.702;8.618;2022-09-28T00:54:06;6.70;;;2.73;;
3217;SDS011;1621;49.702;8.618;2022-09-28T00:56:33;5.77;;;2.50;;
3217;SDS011;1621;49.702;8.618;2022-09-28T00:59:00;4.30;;;2.10;;
3217;SDS011;1621;49.702;8.618;2022-09-28T01:01:28;5.00;;;2.20;;
3217;SDS011;1621;49.702;8.618;2022-09-28T01:03:54;9.00;;;2.80;;
3217;SDS011;1621;49.702;8.618;2022-09-28T01:06:23;5.73;;;2.33;;
3217;SDS011;1621;49.702;8.618;2022-09-28T01:08:54;3.80;;;2.27;;
3217;SDS011;1621;49.702;8.618;2022-09-28T01:11:22;3.63;;;1.93;;
3217;SDS011;1621;49.702;8.618;2022-09-28T01:13:49;5.13;;;2.40;;
3217;SDS011;1621;49.702;8.618;2022-09-28T01:16:18;4.10;;;2.43;;
3217;SDS011;1621;49.702;8.618;2022-09-28T01:18:51;6.10;;;2.73;;
3217;SDS011;1621;49.702;8.618;2022-09-28T01:21:22;5.93;;;2.30;;
3217;SDS011;1621;49.702;8.618;2022-09-28T01:26:42;6.40;;;2.40;;
3217;SDS011;1621;49.702;8.618;2022-09-28T01:29:12;5.43;;;3.10;;
3217;SDS011;1621;49.702;8.618;2022-09-28T01:31:41;5.10;;;2.60;;
3217;SDS011;1621;49.702;8.618;2022-09-28T01:34:09;5.90;;;2.87;;
3217;SDS011;1621;49.702;8.618;2022-09-28T01:36:38;5.50;;;2.30;;
3217;SDS011;1621;49.702;8.618;2022-09-28T01:39:06;5.53;;;2.27;;
3217;SDS011;1621;49.702;8.618;2022-09-28T01:41:34;3.60;;;2.30;;
3217;SDS011;1621;49.702;8.618;2022-09-28T01:44:05;4.37;;;2.60;;
3217;SDS011;1621;49.702;8.618;2022-09-28T01:46:35;4.23;;;2.40;;
3217;SDS011;1621;49.702;8.618;2022-09-28T01:49:02;5.10;;;2.00;;
3217;SDS011;1621;49.702;8.618;2022-09-28T01:51:31;5.87;;;2.20;;
3217;SDS011;1621;49.702;8.618;2022-09-28T01:54:00;3.70;;;2.60;;
3217;SDS011;1621;49.702;8.618;2022-09-28T01:56:27;5.73;;;2.80;;
3217;SDS011;1621;49.702;8.618;2022-09-28T01:58:55;5.17;;;2.70;;
3217;SDS011;1621;49.702;8.618;2022-09-28T02:01:26;6.60;;;3.40;;
3217;SDS011;1621;49.702;8.618;2022-09-28T02:03:54;4.00;;;2.93;;
3217;SDS011;1621;49.702;8.618;2022-09-28T02:06:23;3.70;;;2.80;;
3217;SDS011;1621;49.702;8.618;2022-09-28T02:08:52;3.77;;;2.40;;
3217;SDS011;1621;49.702;8.618;2022-09-28T02:11:20;25.97;;;4.70;;
3217;SDS011;1621;49.702;8.618;2022-09-28T02:13:47;4.10;;;3.00;;
3217;SDS011;1621;49.702;8.618;2022-09-28T02:16:17;4.97;;;2.93;;
3217;SDS011;1621;49.702;8.618;2022-09-28T02:18:45;4.93;;;2.80;;
3217;SDS011;1621;49.702;8.618;2022-09-28T02:21:13;5.50;;;3.37;;
3217;SDS011;1621;49.702;8.618;2022-09-28T02:23:41;5.50;;;3.47;;
3217;SDS011;1621;49.702;8.618;2022-09-28T02:26:12;5.77;;;3.73;;
3217;SDS011;1621;49.702;8.618;2022-09-28T02:28:40;5.60;;;3.60;;
3217;SDS011;1621;49.702;8.618;2022-09-28T02:31:06;5.37;;;3.40;;
3217;SDS011;1621;49.702;8.618;2022-09-28T02:33:33;6.13;;;3.97;;
3217;SDS011;1621;49.702;8.618;2022-09-28T02:36:02;4.90;;;3.40;;
3217;SDS011;1621;49.702;8.618;2022-09-28T02:38:29;4.30;;;3.40;;
3217;SDS011;1621;49.702;8.618;2022-09-28T02:40:56;4.10;;;3.30;;
3217;SDS011;1621;49.702;8.618;2022-09-28T02:43:28;5.57;;;3.00;;
3217;SDS011;1621;49.702;8.618;2022-09-28T02:45:58;3.83;;;2.83;;
3217;SDS011;1621;49.702;8.618;2022-09-28T02:48:40;4.87;;;3.23;;
3217;SDS011;1621;49.702;8.618;2022-09-28T02:51:12;4.60;;;2.93;;
3217;SDS011;1621;49.702;8.618;2022-09-28T02:53:46;8.30;;;3.00;;
3217;SDS011;1621;49.702;8.618;2022-09-28T02:56:28;4.20;;;2.60;;
3217;SDS011;1621;49.702;8.618;2022-09-28T02:58:58;4.43;;;3.00;;
3217;SDS011;1621;49.702;8.618;2022-09-28T03:01:28;4.00;;;2.63;;
3217;SDS011;1621;49.702;8.618;2022-09-28T03:04:00;5.33;;;2.77;;
3217;SDS011;1621;49.702;8.618;2022-09-28T03:06:32;3.30;;;2.20;;
3217;SDS011;1621;49.702;8.618;2022-09-28T03:09:03;4.67;;;2.27;;
3217;SDS011;1621;49.702;8.618;2022-09-28T03:11:31;6.43;;;2.40;;
3217;SDS011;1621;49.702;8.618;2022-09-28T03:13:59;3.50;;;2.03;;
3217;SDS011;1621;49.702;8.618;2022-09-28T03:16:26;5.40;;;1.97;;
3217;SDS011;1621;49.702;8.618;2022-09-28T03:18:55;3.70;;;1.67;;
3217;SDS011;1621;49.702;8.618;2022-09-28T03:21:22;4.30;;;2.03;;
3217;SDS011;1621;49.702;8.618;2022-09-28T03:23:49;3.13;;;1.83;;
3217;SDS011;1621;49.702;8.618;2022-09-28T03:26:16;4.70;;;2.83;;
3217;SDS011;1621;49.702;8.618;2022-09-28T03:28:43;3.83;;;2.10;;
3217;SDS011;1621;49.702;8.618;2022-09-28T03:31:10;3.57;;;1.90;;
3217;SDS011;1621;49.702;8.618;2022-09-28T03:33:36;3.50;;;1.70;;
3217;SDS011;1621;49.702;8.618;2022-09-28T03:36:02;3.30;;;1.87;;
3217;SDS011;1621;49.702;8.618;2022-09-28T03:38:28;4.47;;;2.33;;
3217;SDS011;1621;49.702;8.618;2022-09-28T03:40:57;4.40;;;1.77;;
3217;SDS011;1621;49.702;8.618;2022-09-28T03:43:24;2.83;;;1.70;;
3217;SDS011;1621;49.702;8.618;2022-09-28T03:45:51;5.53;;;2.00;;
3217;SDS011;1621;49.702;8.618;2022-09-28T03:48:19;5.27;;;2.30;;
3217;SDS011;1621;49.702;8.618;2022-09-28T03:50:46;4.23;;;2.43;;
3217;SDS011;1621;49.702;8.618;2022-09-28T03:53:12;4.00;;;2.63;;
3217;SDS011;1621;49.702;8.618;2022-09-28T03:55:38;5.27;;;3.00;;
3217;SDS011;1621;49.702;8.618;2022-09-28T03:58:06;3.70;;;2.50;;
3217;SDS011;1621;49.702;8.618;2022-09-28T04:00:32;4.50;;;2.43;;
3217;SDS011;1621;49.702;8.618;2022-09-28T04:02:58;4.33;;;2.30;;
3217;SDS011;1621;49.702;8.618;2022-09-28T04:05:24;4.33;;;2.40;;
3217;SDS011;1621;49.702;8.618;2022-09-28T04:07:52;3.43;;;1.73;;
3217;SDS011;1621;49.702;8.618;2022-09-28T04:10:20;4.80;;;2.10;;
3217;SDS011;1621;49.702;8.618;2022-09-28T04:12:46;3.57;;;2.00;;
3217;SDS011;1621;49.702;8.618;2022-09-28T04:15:15;2.93;;;1.80;;
3217;SDS011;1621;49.702;8.618;2022-09-28T04:17:41;4.07;;;2.20;;
3217;SDS011;1621;49.702;8.618;2022-09-28T04:20:08;5.23;;;2.23;;
3217;SDS011;1621;49.702;8.618;2022-09-28T04:22:35;3.50;;;2.17;;
3217;SDS011;1621;49.702;8.618;2022-09-28T04:25:01;7.80;;;3.00;;
3217;SDS011;1621;49.702;8.618;2022-09-28T04:27:28;4.23;;;2.20;;
3217;SDS011;1621;49.702;8.618;2022-09-28T04:30:12;4.70;;;2.20;;
3217;SDS011;1621;49.702;8.618;2022-09-28T04:32:39;5.83;;;2.00;;
3217;SDS011;1621;49.702;8.618;2022-09-28T04:35:06;5.63;;;2.20;;
3217;SDS011;1621;49.702;8.618;2022-09-28T04:37:32;3.17;;;1.90;;
3217;SDS011;1621;49.702;8.618;2022-09-28T04:39:58;5.83;;;2.43;;
3217;SDS011;1621;49.702;8.618;2022-09-28T04:42:25;5.30;;;2.40;;
3217;SDS011;1621;49.702;8.618;2022-09-28T04:44:51;3.87;;;2.27;;
3217;SDS011;1621;49.702;8.618;2022-09-28T04:47:17;4.37;;;2.37;;
3217;SDS011;1621;49.702;8.618;2022-09-28T04:49:45;5.13;;;2.53;;
3217;SDS011;1621;49.702;8.618;2022-09-28T04:52:11;5.17;;;2.40;;
3217;SDS011;1621;49.702;8.618;2022-09-28T04:54:37;3.87;;;2.47;;
3217;SDS011;1621;49.702;8.618;2022-09-28T04:57:03;3.77;;;2.57;;
3217;SDS011;1621;49.702;8.618;2022-09-28T04:59:30;5.20;;;2.90;;
3217;SDS011;1621;49.702;8.618;2022-09-28T05:01:56;4.47;;;2.90;;
3217;SDS011;1621;49.702;8.618;2022-09-28T05:04:22;3.87;;;2.70;;
3217;SDS011;1621;49.702;8.618;2022-09-28T05:06:50;4.63;;;2.57;;
3217;SDS011;1621;49.702;8.618;2022-09-28T05:09:16;5.43;;;3.53;;
3217;SDS011;1621;49.702;8.618;2022-09-28T05:11:43;6.97;;;3.97;;
3217;SDS011;1621;49.702;8.618;2022-09-28T05:14:09;4.63;;;2.70;;
3217;SDS011;1621;49.702;8.618;2022-09-28T05:16:35;5.40;;;2.90;;
3217;SDS011;1621;49.702;8.618;2022-09-28T05:19:01;4.13;;;3.10;;
3217;SDS011;1621;49.702;8.618;2022-09-28T05:21:30;5.90;;;3.27;;
3217;SDS011;1621;49.702;8.618;2022-09-28T05:23:57;4.43;;;3.07;;
3217;SDS011;1621;49.702;8.618;2022-09-28T05:26:24;6.37;;;3.50;;
3217;SDS011;1621;49.702;8.618;2022-09-28T05:28:50;4.63;;;3.40;;
3217;SDS011;1621;49.702;8.618;2022-09-28T05:31:16;5.20;;;3.87;;
3217;SDS011;1621;49.702;8.618;2022-09-28T05:33:42;4.93;;;3.20;;
3217;SDS011;1621;49.702;8.618;2022-09-28T05:36:09;5.10;;;3.70;;
3217;SDS011;1621;49.702;8.618;2022-09-28T05:38:35;8.47;;;3.40;;
3217;SDS011;1621;49.702;8.618;2022-09-28T05:41:03;6.00;;;3.83;;
3217;SDS011;1621;49.702;8.618;2022-09-28T05:43:30;4.13;;;3.30;;
3217;SDS011;1621;49.702;8.618;2022-09-28T05:45:57;5.83;;;3.80;;
3217;SDS011;1621;49.702;8.618;2022-09-28T05:48:24;6.03;;;3.47;;
3217;SDS011;1621;49.702;8.618;2022-09-28T05:50:51;6.03;;;3.50;;
3217;SDS011;1621;49.702;8.618;2022-09-28T05:53:17;5.90;;;3.47;;
3217;SDS011;1621;49.702;8.618;2022-09-28T05:55:43;9.73;;;3.40;;
3217;SDS011;1621;49.702;8.618;2022-09-28T05:58:11;5.53;;;3.40;;
3217;SDS011;1621;49.702;8.618;2022-09-28T06:00:37;6.07;;;3.23;;
3217;SDS011;1621;49.702;8.618;2022-09-28T06:03:04;4.87;;;3.20;;
3217;SDS011;1621;49.702;8.618;2022-09-28T06:05:32;3.90;;;2.80;;
3217;SDS011;1621;49.702;8.618;2022-09-28T06:07:59;6.37;;;3.40;;
3217;SDS011;1621;49.702;8.618;2022-09-28T06:10:26;6.63;;;3.30;;
3217;SDS011;1621;49.702;8.618;2022-09-28T06:12:53;5.10;;;3.40;;
3217;SDS011;1621;49.702;8.618;2022-09-28T06:15:21;4.80;;;3.10;;
3217;SDS011;1621;49.702;8.618;2022-09-28T06:17:53;6.30;;;3.43;;
3217;SDS011;1621;49.702;8.618;2022-09-28T06:20:20;6.00;;;3.60;;
3217;SDS011;1621;49.702;8.618;2022-09-28T06:22:49;3.43;;;2.37;;
3217;SDS011;1621;49.702;8.618;2022-09-28T06:25:15;9.27;;;3.60;;
3217;SDS011;1621;49.702;8.618;2022-09-28T06:27:41;5.60;;;3.70;;
3217;SDS011;1621;49.702;8.618;2022-09-28T06:30:08;6.80;;;3.53;;
3217;SDS011;1621;49.702;8.618;2022-09-28T06:32:35;5.30;;;3.87;;
3217;SDS011;1621;49.702;8.618;2022-09-28T06:35:02;5.50;;;3.37;;
3217;SDS011;1621;49.702;8.618;2022-09-28T06:37:28;7.67;;;3.70;;
3217;SDS011;1621;49.702;8.618;2022-09-28T06:39:56;7.30;;;3.90;;
3217;SDS011;1621;49.702;8.618;2022-09-28T06:42:23;8.93;;;4.30;;
3217;SDS011;1621;49.702;8.618;2022-09-28T06:44:49;6.70;;;4.00;;
3217;SDS011;1621;49.702;8.618;2022-09-28T06:47:16;5.50;;;4.37;;
3217;SDS011;1621;49.702;8.618;2022-09-28T06:49:43;9.80;;;4.60;;
3217;SDS011;1621;49.702;8.618;2022-09-28T06:52:11;6.93;;;4.60;;
3217;SDS011;1621;49.702;8.618;2022-09-28T06:54:38;7.60;;;4.73;;
3217;SDS011;1621;49.702;8.618;2022-09-28T06:57:04;7.73;;;5.10;;
3217;SDS011;1621;49.702;8.618;2022-09-28T06:59:30;7.00;;;5.13;;
3217;SDS011;1621;49.702;8.618;2022-09-28T07:01:56;5.70;;;4.00;;
3217;SDS011;1621;49.702;8.618;2022-09-28T07:04:23;7.27;;;4.10;;
3217;SDS011;1621;49.702;8.618;2022-09-28T07:06:51;7.27;;;3.80;;
3217;SDS011;1621;49.702;8.618;2022-09-28T07:09:17;7.47;;;3.87;;
3217;SDS011;1621;49.702;8.618;2022-09-28T07:11:44;5.10;;;3.03;;
3217;SDS011;1621;49.702;8.618;2022-09-28T07:14:10;7.03;;;2.70;;
3217;SDS011;1621;49.702;8.618;2022-09-28T07:16:36;4.70;;;2.60;;
3217;SDS011;1621;49.702;8.618;2022-09-28T07:19:03;6.37;;;2.60;;
3217;SDS011;1621;49.702;8.618;2022-09-28T07:21:30;5.07;;;2.53;;
3217;SDS011;1621;49.702;8.618;2022-09-28T07:23:59;5.87;;;2.40;;
3217;SDS011;1621;49.702;8.618;2022-09-28T07:26:25;5.73;;;2.10;;
3217;SDS011;1621;49.702;8.618;2022-09-28T07:28:51;5.73;;;2.40;;
3217;SDS011;1621;49.702;8.618;2022-09-28T07:31:18;6.43;;;2.00;;
3217;SDS011;1621;49.702;8.618;2022-09-28T07:33:44;4.10;;;1.93;;
3217;SDS011;1621;49.702;8.618;2022-09-28T07:36:11;6.37;;;2.60;;
3217;SDS011;1621;49.702;8.618;2022-09-28T07:38:38;4.77;;;2.40;;
3217;SDS011;1621;49.702;8.618;2022-09-28T07:41:07;5.70;;;2.10;;
3217;SDS011;1621;49.702;8.618;2022-09-28T07:43:35;6.23;;;2.83;;
3217;SDS011;1621;49.702;8.618;2022-09-28T07:46:03;2.80;;;1.63;;
3217;SDS011;1621;49.702;8.618;2022-09-28T07:48:36;5.03;;;2.03;;
3217;SDS011;1621;49.702;8.618;2022-09-28T07:51:02;7.53;;;2.60;;
3217;SDS011;1621;49.702;8.618;2022-09-28T07:53:28;7.30;;;2.10;;
3217;SDS011;1621;49.702;8.618;2022-09-28T07:55:56;3.30;;;1.70;;
3217;SDS011;1621;49.702;8.618;2022-09-28T07:58:29;14.60;;;3.43;;
3217;SDS011;1621;49.702;8.618;2022-09-28T08:00:56;6.13;;;2.07;;
3217;SDS011;1621;49.702;8.618;2022-09-28T08:03:25;4.53;;;2.00;;
3217;SDS011;1621;49.702;8.618;2022-09-28T08:05:55;3.70;;;1.93;;
3217;SDS011;1621;49.702;8.618;2022-09-28T08:08:22;3.40;;;1.77;;
3217;SDS011;1621;49.702;8.618;2022-09-28T08:10:48;6.90;;;2.53;;
3217;SDS011;1621;49.702;8.618;2022-09-28T08:13:16;7.90;;;2.50;;
3217;SDS011;1621;49.702;8.618;2022-09-28T08:15:44;4.83;;;1.93;;
3217;SDS011;1621;49.702;8.618;2022-09-28T08:18:15;4.67;;;2.10;;
3217;SDS011;1621;49.702;8.618;2022-09-28T08:20:42;4.27;;;1.60;;
3217;SDS011;1621;49.702;8.618;2022-09-28T08:23:25;4.93;;;2.40;;
3217;SDS011;1621;49.702;8.618;2022-09-28T08:25:52;3.20;;;1.77;;
3217;SDS011;1621;49.702;8.618;2022-09-28T08:28:19;5.77;;;1.73;;
3217;SDS011;1621;49.702;8.618;2022-09-28T08:30:47;8.60;;;1.63;;
3217;SDS011;1621;49.702;8.618;2022-09-28T08:33:14;4.83;;;1.50;;
3217;SDS011;1621;49.702;8.618;2022-09-28T08:35:41;3.40;;;1.50;;
3217;SDS011;1621;49.702;8.618;2022-09-28T08:38:08;3.87;;;1.73;;
3217;SDS011;1621;49.702;8.618;2022-09-28T08:40:36;4.53;;;1.50;;
3217;SDS011;1621;49.702;8.618;2022-09-28T08:43:13;3.60;;;1.57;;
3217;SDS011;1621;49.702;8.618;2022-09-28T08:45:44;3.40;;;1.60;;
3217;SDS011;1621;49.702;8.618;2022-09-28T08:48:12;3.47;;;1.37;;
3217;SDS011;1621;49.702;8.618;2022-09-28T08:51:00;7.13;;;1.93;;
3217;SDS011;1621;49.702;8.618;2022-09-28T08:53:32;3.27;;;1.67;;
3217;SDS011;1621;49.702;8.618;2022-09-28T08:55:59;3.63;;;1.50;;
3217;SDS011;1621;49.702;8.618;2022-09-28T08:58:30;4.37;;;1.63;;
3217;SDS011;1621;49.702;8.618;2022-09-28T09:00:57;4.50;;;1.90;;
3217;SDS011;1621;49.702;8.618;2022-09-28T09:03:28;5.10;;;2.10;;
3217;SDS011;1621;49.702;8.618;2022-09-28T09:05:57;4.43;;;2.00;;
3217;SDS011;1621;49.702;8.618;2022-09-28T09:08:29;3.07;;;1.40;;
3217;SDS011;1621;49.702;8.618;2022-09-28T09:10:57;4.73;;;1.80;;
3217;SDS011;1621;49.702;8.618;2022-09-28T09:13:40;4.70;;;1.60;;
3217;SDS011;1621;49.702;8.618;2022-09-28T09:16:13;4.40;;;1.60;;
3217;SDS011;1621;49.702;8.618;2022-09-28T09:18:47;4.00;;;1.60;;
3217;SDS011;1621;49.702;8.618;2022-09-28T09:21:14;2.93;;;1.47;;
3217;SDS011;1621;49.702;8.618;2022-09-28T09:23:46;3.47;;;1.30;;
3217;SDS011;1621;49.702;8.618;2022-09-28T09:26:18;4.00;;;1.50;;
3217;SDS011;1621;49.702;8.618;2022-09-28T09:31:29;3.67;;;1.67;;
3217;SDS011;1621;49.702;8.618;2022-09-28T09:34:04;4.67;;;1.80;;
3217;SDS011;1621;49.702;8.618;2022-09-28T09:36:36;4.10;;;1.40;;
3217;SDS011;1621;49.702;8.618;2022-09-28T09:39:11;3.23;;;1.50;;
3217;SDS011;1621;49.702;8.618;2022-09-28T09:41:45;3.37;;;1.47;;
3217;SDS011;1621;49.702;8.618;2022-09-28T09:44:20;3.27;;;1.40;;
3217;SDS011;1621;49.702;8.618;2022-09-28T09:46:53;3.67;;;1.27;;
3217;SDS011;1621;49.702;8.618;2022-09-28T09:49:23;2.30;;;1.13;;
3217;SDS011;1621;49.702;8.618;2022-09-28T09:51:51;2.87;;;1.30;;
3217;SDS011;1621;49.702;8.618;2022-09-28T09:54:22;6.10;;;1.60;;
3217;SDS011;1621;49.702;8.618;2022-09-28T09:56:52;3.27;;;1.40;;
3217;SDS011;1621;49.702;8.618;2022-09-28T09:59:20;4.70;;;1.50;;
3217;SDS011;1621;49.702;8.618;2022-09-28T10:01:48;4.80;;;1.90;;
3217;SDS011;1621;49.702;8.618;2022-09-28T10:04:17;4.23;;;1.23;;
3217;SDS011;1621;49.702;8.618;2022-09-28T10:06:46;3.90;;;1.47;;
3217;SDS011;1621;49.702;8.618;2022-09-28T10:09:15;3.73;;;1.33;;
3217;SDS011;1621;49.702;8.618;2022-09-28T10:11:45;3.10;;;1.67;;
3217;SDS011;1621;49.702;8.618;2022-09-28T10:14:14;3.50;;;1.47;;
3217;SDS011;1621;49.702;8.618;2022-09-28T10:16:41;6.33;;;2.30;;
3217;SDS011;1621;49.702;8.618;2022-09-28T10:19:08;3.93;;;1.80;;
3217;SDS011;1621;49.702;8.618;2022-09-28T10:21:35;4.37;;;1.77;;
3217;SDS011;1621;49.702;8.618;2022-09-28T10:24:07;6.37;;;2.77;;
3217;SDS011;1621;49.702;8.618;2022-09-28T10:26:40;4.27;;;1.87;;
3217;SDS011;1621;49.702;8.618;2022-09-28T10:29:10;6.43;;;1.70;;
3217;SDS011;1621;49.702;8.618;2022-09-28T10:31:39;3.93;;;1.40;;
3217;SDS011;1621;49.702;8.618;2022-09-28T10:34:06;4.00;;;1.53;;
3217;SDS011;1621;49.702;8.618;2022-09-28T10:36:44;4.80;;;1.90;;
3217;SDS011;1621;49.702;8.618;2022-09-28T10:39:21;4.50;;;1.60;;
3217;SDS011;1621;49.702;8.618;2022-09-28T10:41:48;5.03;;;1.53;;
3217;SDS011;1621;49.702;8.618;2022-09-28T10:44:15;4.10;;;1.40;;
3217;SDS011;1621;49.702;8.618;2022-09-28T10:46:42;5.20;;;1.57;;
3217;SDS011;1621;49.702;8.618;2022-09-28T10:49:11;3.40;;;1.60;;
3217;SDS011;1621;49.702;8.618;2022-09-28T10:51:40;4.17;;;1.90;;
3217;SDS011;1621;49.702;8.618;2022-09-28T10:54:09;2.53;;;1.10;;
3217;SDS011;1621;49.702;8.618;2022-09-28T10:56:40;2.90;;;1.20;;
3217;SDS011;1621;49.702;8.618;2022-09-28T10:59:21;2.93;;;1.57;;
3217;SDS011;1621;49.702;8.618;2022-09-28T11:01:50;4.20;;;1.17;;
3217;SDS011;1621;49.702;8.618;2022-09-28T11:04:18;7.23;;;1.30;;
3217;SDS011;1621;49.702;8.618;2022-09-28T11:06:45;4.83;;;1.70;;
3217;SDS011;1621;49.702;8.618;2022-09-28T11:09:20;5.53;;;1.50;;
3217;SDS011;1621;49.702;8.618;2022-09-28T11:11:50;4.50;;;1.17;;
3217;SDS011;1621;49.702;8.618;2022-09-28T11:14:20;3.50;;;1.40;;
3217;SDS011;1621;49.702;8.618;2022-09-28T11:16:51;3.13;;;1.43;;
3217;SDS011;1621;49.702;8.618;2022-09-28T11:19:38;3.20;;;1.20;;
3217;SDS011;1621;49.702;8.618;2022-09-28T11:22:18;3.47;;;1.67;;
3217;SDS011;1621;49.702;8.618;2022-09-28T11:24:44;2.70;;;1.10;;
3217;SDS011;1621;49.702;8.618;2022-09-28T11:27:18;3.07;;;1.33;;
3217;SDS011;1621;49.702;8.618;2022-09-28T11:29:50;3.40;;;1.20;;
3217;SDS011;1621;49.702;8.618;2022-09-28T11:32:18;3.37;;;1.40;;
3217;SDS011;1621;49.702;8.618;2022-09-28T11:34:46;3.00;;;1.50;;
3217;SDS011;1621;49.702;8.618;2022-09-28T11:37:24;4.83;;;1.47;;
3217;SDS011;1621;49.702;8.618;2022-09-28T11:39:57;3.97;;;1.17;;
3217;SDS011;1621;49.702;8.618;2022-09-28T11:42:31;2.20;;;1.10;;
3217;SDS011;1621;49.702;8.618;2022-09-28T11:45:03;5.80;;;1.70;;
3217;SDS011;1621;49.702;8.618;2022-09-28T11:47:36;4.10;;;1.57;;
3217;SDS011;1621;49.702;8.618;2022-09-28T11:50:13;4.33;;;1.33;;
3217;SDS011;1621;49.702;8.618;2022-09-28T11:52:43;2.40;;;1.20;;
3217;SDS011;1621;49.702;8.618;2022-09-28T11:55:12;2.70;;;1.30;;
3217;SDS011;1621;49.702;8.618;2022-09-28T11:57:43;5.37;;;1.40;;
3217;SDS011;1621;49.702;8.618;2022-09-28T12:00:11;5.30;;;1.13;;
3217;SDS011;1621;49.702;8.618;2022-09-28T12:02:40;2.37;;;0.97;;
3217;SDS011;1621;49.702;8.618;2022-09-28T12:05:10;6.33;;;1.33;;
3217;SDS011;1621;49.702;8.618;2022-09-28T12:07:39;3.43;;;1.33;;
3217;SDS011;1621;49.702;8.618;2022-09-28T12:10:09;2.00;;;0.90;;
3217;SDS011;1621;49.702;8.618;2022-09-28T12:12:39;3.03;;;1.17;;
3217;SDS011;1621;49.702;8.618;2022-09-28T12:15:13;4.73;;;1.30;;
3217;SDS011;1621;49.702;8.618;2022-09-28T12:17:41;3.47;;;1.53;;
3217;SDS011;1621;49.702;8.618;2022-09-28T12:20:10;2.97;;;1.27;;
3217;SDS011;1621;49.702;8.618;2022-09-28T12:22:39;2.30;;;1.43;;
3217;SDS011;1621;49.702;8.618;2022-09-28T12:25:09;4.20;;;2.00;;
3217;SDS011;1621;49.702;8.618;2022-09-28T12:27:39;3.70;;;1.23;;
3217;SDS011;1621;49.702;8.618;2022-09-28T12:30:11;2.03;;;0.87;;
3217;SDS011;1621;49.702;8.618;2022-09-28T12:32:40;7.30;;;1.50;;
3217;SDS011;1621;49.702;8.618;2022-09-28T12:35:11;2.63;;;1.20;;
3217;SDS011;1621;49.702;8.618;2022-09-28T12:37:43;3.10;;;1.30;;
3217;SDS011;1621;49.702;8.618;2022-09-28T12:43:16;3.30;;;1.50;;
3217;SDS011;1621;49.702;8.618;2022-09-28T12:45:52;3.27;;;1.60;;
3217;SDS011;1621;49.702;8.618;2022-09-28T12:48:27;3.70;;;1.10;;
3217;SDS011;1621;49.702;8.618;2022-09-28T12:50:57;3.33;;;1.20;;
3217;SDS011;1621;49.702;8.618;2022-09-28T12:53:37;3.27;;;1.60;;
3217;SDS011;1621;49.702;8.618;2022-09-28T12:56:10;6.27;;;1.30;;
3217;SDS011;1621;49.702;8.618;2022-09-28T12:58:44;2.63;;;1.10;;
3217;SDS011;1621;49.702;8.618;2022-09-28T13:01:19;3.17;;;1.23;;
3217;SDS011;1621;49.702;8.618;2022-09-28T13:06:34;4.07;;;1.50;;
3217;SDS011;1621;49.702;8.618;2022-09-28T13:09:13;2.30;;;1.20;;
3217;SDS011;1621;49.702;8.618;2022-09-28T13:11:42;2.83;;;1.20;;
3217;SDS011;1621;49.702;8.618;2022-09-28T13:14:19;2.83;;;1.27;;
3217;SDS011;1621;49.702;8.618;2022-09-28T13:16:50;2.17;;;0.97;;
3217;SDS011;1621;49.702;8.618;2022-09-28T13:19:20;3.50;;;1.10;;
3217;SDS011;1621;49.702;8.618;2022-09-28T13:21:51;2.40;;;1.10;;
3217;SDS011;1621;49.702;8.618;2022-09-28T13:24:23;3.70;;;1.00;;
3217;SDS011;1621;49.702;8.618;2022-09-28T13:26:51;2.57;;;1.00;;
3217;SDS011;1621;49.702;8.618;2022-09-28T13:29:18;2.53;;;1.30;;
3217;SDS011;1621;49.702;8.618;2022-09-28T13:31:46;2.63;;;1.00;;
3217;SDS011;1621;49.702;8.618;2022-09-28T13:34:15;2.13;;;1.00;;
3217;SDS011;1621;49.702;8.618;2022-09-28T13:36:44;2.77;;;1.20;;
3217;SDS011;1621;49.702;8.618;2022-09-28T13:41:57;2.43;;;1.03;;
3217;SDS011;1621;49.702;8.618;2022-09-28T13:44:31;3.40;;;1.00;;
3217;SDS011;1621;49.702;8.618;2022-09-28T13:47:04;4.20;;;1.57;;
3217;SDS011;1621;49.702;8.618;2022-09-28T13:49:35;1.90;;;0.90;;
3217;SDS011;1621;49.702;8.618;2022-09-28T13:52:05;3.97;;;1.30;;
3217;SDS011;1621;49.702;8.618;2022-09-28T13:54:42;2.10;;;1.00;;
3217;SDS011;1621;49.702;8.618;2022-09-28T13:57:15;3.20;;;1.17;;
3217;SDS011;1621;49.702;8.618;2022-09-28T13:59:44;2.40;;;1.10;;
3217;SDS011;1621;49.702;8.618;2022-09-28T14:02:12;2.43;;;1.27;;
3217;SDS011;1621;49.702;8.618;2022-09-28T14:04:52;2.10;;;0.87;;
3217;SDS011;1621;49.702;8.618;2022-09-28T14:07:20;3.03;;;1.00;;
3217;SDS011;1621;49.702;8.618;2022-09-28T14:09:47;3.90;;;1.50;;
3217;SDS011;1621;49.702;8.618;2022-09-28T14:12:28;2.77;;;1.20;;
3217;SDS011;1621;49.702;8.618;2022-09-28T14:14:55;7.43;;;1.63;;
3217;SDS011;1621;49.702;8.618;2022-09-28T14:20:14;2.83;;;1.30;;
3217;SDS011;1621;49.702;8.618;2022-09-28T14:22:43;2.67;;;1.30;;
3217;SDS011;1621;49.702;8.618;2022-09-28T14:25:13;5.87;;;1.80;;
3217;SDS011;1621;49.702;8.618;2022-09-28T14:27:58;6.53;;;0.90;;
3217;SDS011;1621;49.702;8.618;2022-09-28T14:30:26;2.90;;;1.30;;
3217;SDS011;1621;49.702;8.618;2022-09-28T14:32:55;2.27;;;1.00;;
3217;SDS011;1621;49.702;8.618;2022-09-28T14:35:24;4.40;;;1.20;;
3217;SDS011;1621;49.702;8.618;2022-09-28T14:37:52;2.97;;;1.10;;
3217;SDS011;1621;49.702;8.618;2022-09-28T14:40:52;2.50;;;1.33;;
3217;SDS011;1621;49.702;8.618;2022-09-28T14:46:38;4.03;;;1.20;;
3217;SDS011;1621;49.702;8.618;2022-09-28T14:51:56;2.87;;;1.10;;
3217;SDS011;1621;49.702;8.618;2022-09-28T14:54:25;4.13;;;1.10;;
3217;SDS011;1621;49.702;8.618;2022-09-28T14:56:55;1.83;;;0.90;;
3217;SDS011;1621;49.702;8.618;2022-09-28T14:59:24;2.70;;;1.10;;
3217;SDS011;1621;49.702;8.618;2022-09-28T15:01:52;2.70;;;1.00;;
3217;SDS011;1621;49.702;8.618;2022-09-28T15:04:21;3.90;;;1.23;;
3217;SDS011;1621;49.702;8.618;2022-09-28T15:06:49;2.67;;;1.00;;
3217;SDS011;1621;49.702;8.618;2022-09-28T15:09:25;2.20;;;0.90;;
3217;SDS011;1621;49.702;8.618;2022-09-28T15:11:52;3.53;;;1.10;;
3217;SDS011;1621;49.702;8.618;2022-09-28T15:14:23;2.37;;;1.10;;
3217;SDS011;1621;49.702;8.618;2022-09-28T15:16:49;3.33;;;1.00;;
3217;SDS011;1621;49.702;8.618;2022-09-28T15:19:20;2.77;;;0.90;;
3217;SDS011;1621;49.702;8.618;2022-09-28T15:21:48;2.47;;;1.20;;
3217;SDS011;1621;49.702;8.618;2022-09-28T15:24:24;2.57;;;0.93;;
3217;SDS011;1621;49.702;8.618;2022-09-28T15:26:51;2.90;;;1.20;;
3217;SDS011;1621;49.702;8.618;2022-09-28T15:29:18;4.53;;;2.07;;
3217;SDS011;1621;49.702;8.618;2022-09-28T15:31:45;3.20;;;1.20;;
3217;SDS011;1621;49.702;8.618;2022-09-28T15:34:26;2.00;;;1.00;;
3217;SDS011;1621;49.702;8.618;2022-09-28T15:37:10;2.40;;;1.17;;
3217;SDS011;1621;49.702;8.618;2022-09-28T15:39:36;2.80;;;1.10;;
3217;SDS011;1621;49.702;8.618;2022-09-28T15:42:02;2.20;;;1.20;;
3217;SDS011;1621;49.702;8.618;2022-09-28T15:44:30;4.60;;;1.13;;
3217;SDS011;1621;49.702;8.618;2022-09-28T15:47:07;2.47;;;1.17;;
3217;SDS011;1621;49.702;8.618;2022-09-28T15:49:36;2.50;;;1.00;;
3217;SDS011;1621;49.702;8.618;2022-09-28T15:52:05;3.13;;;1.10;;
3217;SDS011;1621;49.702;8.618;2022-09-28T15:54:34;3.13;;;1.17;;